sensor_id;sensor_type;location;lat;lon;timestamp;P1;durP1;ratioP1;P2;durP2;ratioP2
44838;SDS011;30576;42.098;24.876;2023-10-31T00:04:41;13.43;;;5.20;;
44838;SDS011;30576;42.098;24.876;2023-10-31T00:07:06;9.52;;;5.30;;
44838;SDS011;30576;42.098;24.876;2023-10-31T00:09:32;19.00;;;6.50;;
44838;SDS011;30576;42.098;24.876;2023-10-31T00:11:58;13.43;;;5.70;;
44838;SDS011;30576;42.098;24.876;2023-10-31T00:14:23;12.80;;;6.03;;
44838;SDS011;30576;42.098;24.876;2023-10-31T00:16:49;10.70;;;5.90;;
44838;SDS011;30576;42.098;24.876;2023-10-31T00:21:40;10.55;;;5.75;;
44838;SDS011;30576;42.098;24.876;2023-10-31T00:26:31;22.00;;;7.50;;
44838;SDS011;30576;42.098;24.876;2023-10-31T00:33:47;9.90;;;5.07;;
44838;SDS011;30576;42.098;24.876;2023-10-31T00:36:12;14.43;;;6.65;;
44838;SDS011;30576;42.098;24.876;2023-10-31T00:38:39;11.05;;;6.15;;
44838;SDS011;30576;42.098;24.876;2023-10-31T00:41:04;9.38;;;5.65;;
44838;SDS011;30576;42.098;24.876;2023-10-31T00:45:55;13.05;;;6.57;;
44838;SDS011;30576;42.098;24.876;2023-10-31T00:48:21;16.58;;;6.30;;
44838;SDS011;30576;42.098;24.876;2023-10-31T00:55:38;11.70;;;5.63;;
44838;SDS011;30576;42.098;24.876;2023-10-31T00:58:04;10.82;;;5.10;;
44838;SDS011;30576;42.098;24.876;2023-10-31T01:07:45;11.88;;;5.65;;
44838;SDS011;30576;42.098;24.876;2023-10-31T01:10:11;14.30;;;6.45;;
44838;SDS011;30576;42.098;24.876;2023-10-31T01:22:18;6.90;;;4.03;;
44838;SDS011;30576;42.098;24.876;2023-10-31T01:29:34;12.48;;;5.78;;
44838;SDS011;30576;42.098;24.876;2023-10-31T01:34:24;11.65;;;5.15;;
44838;SDS011;30576;42.098;24.876;2023-10-31T01:44:07;14.07;;;7.07;;
44838;SDS011;30576;42.098;24.876;2023-10-31T01:46:33;10.30;;;5.15;;
44838;SDS011;30576;42.098;24.876;2023-10-31T01:53:49;11.45;;;5.65;;
44838;SDS011;30576;42.098;24.876;2023-10-31T01:56:14;8.98;;;5.50;;
44838;SDS011;30576;42.098;24.876;2023-10-31T01:58:40;13.70;;;6.13;;
44838;SDS011;30576;42.098;24.876;2023-10-31T02:01:08;8.85;;;5.53;;
44838;SDS011;30576;42.098;24.876;2023-10-31T02:03:33;7.25;;;4.07;;
44838;SDS011;30576;42.098;24.876;2023-10-31T02:08:24;9.95;;;6.68;;
44838;SDS011;30576;42.098;24.876;2023-10-31T02:10:51;22.55;;;6.13;;
44838;SDS011;30576;42.098;24.876;2023-10-31T02:13:17;10.90;;;5.68;;
44838;SDS011;30576;42.098;24.876;2023-10-31T02:15:43;13.27;;;7.85;;
44838;SDS011;30576;42.098;24.876;2023-10-31T02:18:09;10.45;;;5.57;;
44838;SDS011;30576;42.098;24.876;2023-10-31T02:20:35;14.00;;;5.03;;
44838;SDS011;30576;42.098;24.876;2023-10-31T02:23:02;10.80;;;5.88;;
44838;SDS011;30576;42.098;24.876;2023-10-31T02:25:28;11.27;;;5.60;;
44838;SDS011;30576;42.098;24.876;2023-10-31T02:27:54;15.10;;;5.93;;
44838;SDS011;30576;42.098;24.876;2023-10-31T02:32:45;8.52;;;5.60;;
44838;SDS011;30576;42.098;24.876;2023-10-31T02:37:36;9.43;;;5.25;;
44838;SDS011;30576;42.098;24.876;2023-10-31T02:40:02;11.52;;;6.47;;
44838;SDS011;30576;42.098;24.876;2023-10-31T02:42:28;8.27;;;5.63;;
44838;SDS011;30576;42.098;24.876;2023-10-31T02:47:19;10.82;;;5.72;;
44838;SDS011;30576;42.098;24.876;2023-10-31T02:49:45;19.02;;;6.38;;
44838;SDS011;30576;42.098;24.876;2023-10-31T02:54:36;11.05;;;5.03;;
44838;SDS011;30576;42.098;24.876;2023-10-31T02:59:27;9.15;;;6.05;;
44838;SDS011;30576;42.098;24.876;2023-10-31T03:01:53;19.05;;;6.00;;
44838;SDS011;30576;42.098;24.876;2023-10-31T03:06:44;13.15;;;5.55;;
44838;SDS011;30576;42.098;24.876;2023-10-31T03:11:35;10.07;;;5.40;;
44838;SDS011;30576;42.098;24.876;2023-10-31T03:18:51;12.60;;;5.97;;
44838;SDS011;30576;42.098;24.876;2023-10-31T03:23:46;8.18;;;5.22;;
44838;SDS011;30576;42.098;24.876;2023-10-31T03:26:14;20.58;;;6.40;;
44838;SDS011;30576;42.098;24.876;2023-10-31T03:31:05;10.15;;;5.03;;
44838;SDS011;30576;42.098;24.876;2023-10-31T03:35:56;20.65;;;6.65;;
44838;SDS011;30576;42.098;24.876;2023-10-31T03:43:12;8.20;;;5.70;;
44838;SDS011;30576;42.098;24.876;2023-10-31T03:48:03;10.77;;;6.55;;
44838;SDS011;30576;42.098;24.876;2023-10-31T03:52:59;10.75;;;4.97;;
44838;SDS011;30576;42.098;24.876;2023-10-31T04:00:15;12.30;;;5.40;;
44838;SDS011;30576;42.098;24.876;2023-10-31T04:05:06;13.55;;;5.28;;
44838;SDS011;30576;42.098;24.876;2023-10-31T04:09:57;13.93;;;7.05;;
44838;SDS011;30576;42.098;24.876;2023-10-31T04:12:23;9.07;;;6.28;;
44838;SDS011;30576;42.098;24.876;2023-10-31T04:19:39;15.27;;;6.73;;
44838;SDS011;30576;42.098;24.876;2023-10-31T04:24:30;6.15;;;4.40;;
44838;SDS011;30576;42.098;24.876;2023-10-31T04:29:21;10.63;;;5.97;;
44838;SDS011;30576;42.098;24.876;2023-10-31T04:34:12;11.70;;;5.95;;
44838;SDS011;30576;42.098;24.876;2023-10-31T04:39:04;11.80;;;5.97;;
44838;SDS011;30576;42.098;24.876;2023-10-31T04:43:57;16.92;;;5.43;;
44838;SDS011;30576;42.098;24.876;2023-10-31T04:48:49;19.33;;;6.32;;
44838;SDS011;30576;42.098;24.876;2023-10-31T04:58:36;7.78;;;4.22;;
44838;SDS011;30576;42.098;24.876;2023-10-31T05:08:18;7.68;;;5.00;;
44838;SDS011;30576;42.098;24.876;2023-10-31T05:15:34;7.90;;;6.05;;
44838;SDS011;30576;42.098;24.876;2023-10-31T05:22:50;8.60;;;5.70;;
44838;SDS011;30576;42.098;24.876;2023-10-31T05:27:42;15.23;;;7.03;;
44838;SDS011;30576;42.098;24.876;2023-10-31T05:37:24;7.35;;;5.40;;
44838;SDS011;30576;42.098;24.876;2023-10-31T05:42:15;14.15;;;7.13;;
44838;SDS011;30576;42.098;24.876;2023-10-31T05:49:33;16.98;;;6.03;;
44838;SDS011;30576;42.098;24.876;2023-10-31T05:51:58;11.40;;;6.88;;
44838;SDS011;30576;42.098;24.876;2023-10-31T05:56:50;12.77;;;7.97;;
44838;SDS011;30576;42.098;24.876;2023-10-31T06:04:07;21.08;;;8.93;;
44838;SDS011;30576;42.098;24.876;2023-10-31T06:06:32;13.43;;;7.35;;
44838;SDS011;30576;42.098;24.876;2023-10-31T06:11:23;10.00;;;7.20;;
44838;SDS011;30576;42.098;24.876;2023-10-31T06:13:49;17.85;;;7.70;;
44838;SDS011;30576;42.098;24.876;2023-10-31T06:21:05;19.77;;;7.28;;
44838;SDS011;30576;42.098;24.876;2023-10-31T06:23:32;24.55;;;8.77;;
44838;SDS011;30576;42.098;24.876;2023-10-31T06:25:57;21.48;;;8.52;;
44838;SDS011;30576;42.098;24.876;2023-10-31T06:30:48;17.60;;;9.48;;
44838;SDS011;30576;42.098;24.876;2023-10-31T06:33:14;33.38;;;9.52;;
44838;SDS011;30576;42.098;24.876;2023-10-31T06:35:39;17.90;;;9.43;;
44838;SDS011;30576;42.098;24.876;2023-10-31T06:40:30;16.85;;;11.27;;
44838;SDS011;30576;42.098;24.876;2023-10-31T06:42:56;17.70;;;9.75;;
44838;SDS011;30576;42.098;24.876;2023-10-31T06:47:47;16.65;;;7.25;;
44838;SDS011;30576;42.098;24.876;2023-10-31T06:50:12;9.13;;;5.78;;
44838;SDS011;30576;42.098;24.876;2023-10-31T06:52:38;14.18;;;7.57;;
44838;SDS011;30576;42.098;24.876;2023-10-31T06:55:03;9.88;;;5.75;;
44838;SDS011;30576;42.098;24.876;2023-10-31T06:59:55;11.23;;;6.00;;
44838;SDS011;30576;42.098;24.876;2023-10-31T07:02:20;9.88;;;6.93;;
44838;SDS011;30576;42.098;24.876;2023-10-31T07:04:46;9.98;;;5.47;;
44838;SDS011;30576;42.098;24.876;2023-10-31T07:07:11;23.77;;;6.75;;
44838;SDS011;30576;42.098;24.876;2023-10-31T07:09:37;15.77;;;8.35;;
44838;SDS011;30576;42.098;24.876;2023-10-31T07:12:02;13.55;;;6.22;;
44838;SDS011;30576;42.098;24.876;2023-10-31T07:14:28;13.93;;;6.95;;
44838;SDS011;30576;42.098;24.876;2023-10-31T07:16:53;10.40;;;6.28;;
44838;SDS011;30576;42.098;24.876;2023-10-31T07:19:21;17.33;;;6.88;;
44838;SDS011;30576;42.098;24.876;2023-10-31T07:21:46;15.65;;;7.22;;
44838;SDS011;30576;42.098;24.876;2023-10-31T07:24:12;16.02;;;6.47;;
44838;SDS011;30576;42.098;24.876;2023-10-31T07:26:37;25.20;;;7.25;;
44838;SDS011;30576;42.098;24.876;2023-10-31T07:29:03;11.70;;;6.95;;
44838;SDS011;30576;42.098;24.876;2023-10-31T07:31:28;9.10;;;5.68;;
44838;SDS011;30576;42.098;24.876;2023-10-31T07:33:54;13.25;;;6.65;;
44838;SDS011;30576;42.098;24.876;2023-10-31T07:36:21;12.27;;;6.53;;
44838;SDS011;30576;42.098;24.876;2023-10-31T07:38:46;10.60;;;5.57;;
44838;SDS011;30576;42.098;24.876;2023-10-31T07:41:12;11.25;;;6.53;;
44838;SDS011;30576;42.098;24.876;2023-10-31T07:43:38;9.82;;;5.70;;
44838;SDS011;30576;42.098;24.876;2023-10-31T07:46:04;11.50;;;5.82;;
44838;SDS011;30576;42.098;24.876;2023-10-31T07:48:29;19.42;;;5.35;;
44838;SDS011;30576;42.098;24.876;2023-10-31T07:50:56;15.30;;;5.35;;
44838;SDS011;30576;42.098;24.876;2023-10-31T07:53:22;12.00;;;5.75;;
44838;SDS011;30576;42.098;24.876;2023-10-31T07:55:47;10.13;;;4.97;;
44838;SDS011;30576;42.098;24.876;2023-10-31T07:58:13;15.65;;;5.85;;
44838;SDS011;30576;42.098;24.876;2023-10-31T08:00:39;15.90;;;5.22;;
44838;SDS011;30576;42.098;24.876;2023-10-31T08:03:04;10.00;;;5.28;;
44838;SDS011;30576;42.098;24.876;2023-10-31T08:05:30;12.05;;;5.32;;
44838;SDS011;30576;42.098;24.876;2023-10-31T08:07:55;15.65;;;5.38;;
44838;SDS011;30576;42.098;24.876;2023-10-31T08:10:21;11.40;;;5.55;;
44838;SDS011;30576;42.098;24.876;2023-10-31T08:12:46;6.93;;;4.25;;
44838;SDS011;30576;42.098;24.876;2023-10-31T08:15:12;10.38;;;5.45;;
44838;SDS011;30576;42.098;24.876;2023-10-31T08:17:38;10.05;;;5.20;;
44838;SDS011;30576;42.098;24.876;2023-10-31T08:20:04;7.90;;;4.30;;
44838;SDS011;30576;42.098;24.876;2023-10-31T08:22:30;8.25;;;4.70;;
44838;SDS011;30576;42.098;24.876;2023-10-31T08:24:55;11.82;;;4.53;;
44838;SDS011;30576;42.098;24.876;2023-10-31T08:27:21;8.18;;;4.97;;
44838;SDS011;30576;42.098;24.876;2023-10-31T08:29:46;7.32;;;4.07;;
44838;SDS011;30576;42.098;24.876;2023-10-31T08:32:12;7.22;;;3.88;;
44838;SDS011;30576;42.098;24.876;2023-10-31T08:34:37;9.48;;;3.03;;
44838;SDS011;30576;42.098;24.876;2023-10-31T08:37:03;8.60;;;3.05;;
44838;SDS011;30576;42.098;24.876;2023-10-31T08:39:28;9.80;;;2.42;;
44838;SDS011;30576;42.098;24.876;2023-10-31T08:41:55;5.68;;;2.85;;
44838;SDS011;30576;42.098;24.876;2023-10-31T08:44:21;10.02;;;3.67;;
44838;SDS011;30576;42.098;24.876;2023-10-31T08:46:47;8.30;;;4.28;;
44838;SDS011;30576;42.098;24.876;2023-10-31T08:49:14;6.47;;;3.63;;
44838;SDS011;30576;42.098;24.876;2023-10-31T08:51:40;8.80;;;4.03;;
44838;SDS011;30576;42.098;24.876;2023-10-31T08:54:06;8.05;;;3.70;;
44838;SDS011;30576;42.098;24.876;2023-10-31T08:56:31;14.48;;;4.03;;
44838;SDS011;30576;42.098;24.876;2023-10-31T08:58:57;17.20;;;3.63;;
44838;SDS011;30576;42.098;24.876;2023-10-31T09:01:22;12.50;;;4.60;;
44838;SDS011;30576;42.098;24.876;2023-10-31T09:03:48;12.45;;;4.72;;
44838;SDS011;30576;42.098;24.876;2023-10-31T09:06:14;11.60;;;3.47;;
44838;SDS011;30576;42.098;24.876;2023-10-31T09:08:40;8.27;;;4.32;;
44838;SDS011;30576;42.098;24.876;2023-10-31T09:11:05;13.43;;;4.95;;
44838;SDS011;30576;42.098;24.876;2023-10-31T09:13:31;9.90;;;3.92;;
44838;SDS011;30576;42.098;24.876;2023-10-31T09:15:58;9.38;;;4.90;;
44838;SDS011;30576;42.098;24.876;2023-10-31T09:18:24;5.75;;;3.10;;
44838;SDS011;30576;42.098;24.876;2023-10-31T09:20:49;6.20;;;2.17;;
44838;SDS011;30576;42.098;24.876;2023-10-31T09:23:15;7.38;;;3.60;;
44838;SDS011;30576;42.098;24.876;2023-10-31T09:25:42;12.25;;;3.72;;
44838;SDS011;30576;42.098;24.876;2023-10-31T09:28:11;7.50;;;4.68;;
44838;SDS011;30576;42.098;24.876;2023-10-31T09:30:36;5.25;;;2.80;;
44838;SDS011;30576;42.098;24.876;2023-10-31T09:33:02;5.43;;;2.95;;
44838;SDS011;30576;42.098;24.876;2023-10-31T09:35:27;5.07;;;2.65;;
44838;SDS011;30576;42.098;24.876;2023-10-31T09:37:53;16.45;;;3.53;;
44838;SDS011;30576;42.098;24.876;2023-10-31T09:40:19;7.28;;;2.97;;
44838;SDS011;30576;42.098;24.876;2023-10-31T09:42:46;9.98;;;3.15;;
44838;SDS011;30576;42.098;24.876;2023-10-31T09:45:12;6.28;;;3.28;;
44838;SDS011;30576;42.098;24.876;2023-10-31T09:47:38;6.93;;;2.92;;
44838;SDS011;30576;42.098;24.876;2023-10-31T09:50:05;10.00;;;3.22;;
44838;SDS011;30576;42.098;24.876;2023-10-31T09:52:32;5.47;;;3.95;;
44838;SDS011;30576;42.098;24.876;2023-10-31T09:54:57;10.90;;;3.88;;
44838;SDS011;30576;42.098;24.876;2023-10-31T09:57:24;9.60;;;3.00;;
44838;SDS011;30576;42.098;24.876;2023-10-31T09:59:51;6.63;;;3.00;;
44838;SDS011;30576;42.098;24.876;2023-10-31T10:02:17;12.07;;;3.50;;
44838;SDS011;30576;42.098;24.876;2023-10-31T10:04:42;10.23;;;3.28;;
44838;SDS011;30576;42.098;24.876;2023-10-31T10:07:08;11.88;;;4.18;;
44838;SDS011;30576;42.098;24.876;2023-10-31T10:09:33;6.38;;;3.17;;
44838;SDS011;30576;42.098;24.876;2023-10-31T10:11:59;10.05;;;3.33;;
44838;SDS011;30576;42.098;24.876;2023-10-31T10:14:25;6.40;;;3.05;;
44838;SDS011;30576;42.098;24.876;2023-10-31T10:16:53;8.25;;;3.20;;
44838;SDS011;30576;42.098;24.876;2023-10-31T10:19:21;15.55;;;3.92;;
44838;SDS011;30576;42.098;24.876;2023-10-31T10:21:54;12.30;;;3.75;;
44838;SDS011;30576;42.098;24.876;2023-10-31T10:24:21;4.15;;;2.90;;
44838;SDS011;30576;42.098;24.876;2023-10-31T10:26:47;8.75;;;3.20;;
44838;SDS011;30576;42.098;24.876;2023-10-31T10:29:13;10.70;;;3.08;;
44838;SDS011;30576;42.098;24.876;2023-10-31T10:31:39;5.88;;;2.35;;
44838;SDS011;30576;42.098;24.876;2023-10-31T10:34:06;7.68;;;2.97;;
44838;SDS011;30576;42.098;24.876;2023-10-31T10:36:32;4.38;;;3.20;;
44838;SDS011;30576;42.098;24.876;2023-10-31T10:38:59;6.05;;;2.92;;
44838;SDS011;30576;42.098;24.876;2023-10-31T10:41:25;6.82;;;3.50;;
44838;SDS011;30576;42.098;24.876;2023-10-31T10:44:06;5.35;;;3.15;;
44838;SDS011;30576;42.098;24.876;2023-10-31T10:46:33;18.50;;;3.30;;
44838;SDS011;30576;42.098;24.876;2023-10-31T10:49:02;6.15;;;3.45;;
44838;SDS011;30576;42.098;24.876;2023-10-31T10:51:33;7.15;;;3.50;;
44838;SDS011;30576;42.098;24.876;2023-10-31T10:54:19;5.40;;;2.88;;
44838;SDS011;30576;42.098;24.876;2023-10-31T10:56:58;12.90;;;3.40;;
44838;SDS011;30576;42.098;24.876;2023-10-31T10:59:47;6.55;;;4.15;;
44838;SDS011;30576;42.098;24.876;2023-10-31T11:02:17;4.97;;;3.13;;
44838;SDS011;30576;42.098;24.876;2023-10-31T11:04:43;8.57;;;3.15;;
44838;SDS011;30576;42.098;24.876;2023-10-31T11:07:09;4.38;;;2.78;;
44838;SDS011;30576;42.098;24.876;2023-10-31T11:09:35;6.07;;;2.70;;
44838;SDS011;30576;42.098;24.876;2023-10-31T11:12:01;7.18;;;3.42;;
44838;SDS011;30576;42.098;24.876;2023-10-31T11:14:28;5.57;;;3.10;;
44838;SDS011;30576;42.098;24.876;2023-10-31T11:16:57;8.68;;;3.72;;
44838;SDS011;30576;42.098;24.876;2023-10-31T11:19:27;5.97;;;3.35;;
44838;SDS011;30576;42.098;24.876;2023-10-31T11:22:03;4.63;;;2.63;;
44838;SDS011;30576;42.098;24.876;2023-10-31T11:24:31;5.13;;;2.75;;
44838;SDS011;30576;42.098;24.876;2023-10-31T11:27:00;7.35;;;3.55;;
44838;SDS011;30576;42.098;24.876;2023-10-31T11:29:26;6.93;;;4.35;;
44838;SDS011;30576;42.098;24.876;2023-10-31T11:31:55;5.20;;;3.28;;
44838;SDS011;30576;42.098;24.876;2023-10-31T11:34:26;7.13;;;3.88;;
44838;SDS011;30576;42.098;24.876;2023-10-31T11:36:53;6.15;;;2.28;;
44838;SDS011;30576;42.098;24.876;2023-10-31T11:39:39;4.20;;;2.45;;
44838;SDS011;30576;42.098;24.876;2023-10-31T11:42:04;12.65;;;3.00;;
44838;SDS011;30576;42.098;24.876;2023-10-31T11:45:03;7.80;;;2.65;;
44838;SDS011;30576;42.098;24.876;2023-10-31T11:47:44;5.55;;;2.63;;
44838;SDS011;30576;42.098;24.876;2023-10-31T11:50:13;8.18;;;2.88;;
44838;SDS011;30576;42.098;24.876;2023-10-31T11:52:39;5.50;;;3.15;;
44838;SDS011;30576;42.098;24.876;2023-10-31T11:55:06;4.65;;;2.97;;
44838;SDS011;30576;42.098;24.876;2023-10-31T11:57:35;12.35;;;2.83;;
44838;SDS011;30576;42.098;24.876;2023-10-31T12:00:01;11.07;;;3.60;;
44838;SDS011;30576;42.098;24.876;2023-10-31T12:02:29;63.00;;;28.55;;
44838;SDS011;30576;42.098;24.876;2023-10-31T12:05:10;16.23;;;9.70;;
44838;SDS011;30576;42.098;24.876;2023-10-31T12:07:43;468.05;;;329.20;;
44838;SDS011;30576;42.098;24.876;2023-10-31T12:10:10;332.15;;;204.45;;
44838;SDS011;30576;42.098;24.876;2023-10-31T12:12:36;1544.45;;;664.55;;
44838;SDS011;30576;42.098;24.876;2023-10-31T12:15:07;975.13;;;556.72;;
44838;SDS011;30576;42.098;24.876;2023-10-31T12:17:36;463.13;;;284.75;;
44838;SDS011;30576;42.098;24.876;2023-10-31T12:20:08;689.55;;;375.15;;
44838;SDS011;30576;42.098;24.876;2023-10-31T12:22:34;590.90;;;318.83;;
44838;SDS011;30576;42.098;24.876;2023-10-31T12:25:03;1294.97;;;560.20;;
44838;SDS011;30576;42.098;24.876;2023-10-31T12:30:11;582.22;;;505.38;;
44838;SDS011;30576;42.098;24.876;2023-10-31T12:32:39;1448.60;;;785.33;;
44838;SDS011;30576;42.098;24.876;2023-10-31T12:35:05;709.42;;;482.67;;
44838;SDS011;30576;42.098;24.876;2023-10-31T12:37:31;112.70;;;74.43;;
44838;SDS011;30576;42.098;24.876;2023-10-31T12:39:58;1261.80;;;651.35;;
44838;SDS011;30576;42.098;24.876;2023-10-31T12:42:28;273.20;;;187.13;;
44838;SDS011;30576;42.098;24.876;2023-10-31T12:44:56;210.45;;;112.05;;
44838;SDS011;30576;42.098;24.876;2023-10-31T12:47:24;86.20;;;61.38;;
44838;SDS011;30576;42.098;24.876;2023-10-31T12:52:52;11.07;;;4.00;;
44838;SDS011;30576;42.098;24.876;2023-10-31T12:55:25;3.42;;;2.13;;
44838;SDS011;30576;42.098;24.876;2023-10-31T12:57:52;7.15;;;2.35;;
44838;SDS011;30576;42.098;24.876;2023-10-31T13:00:19;9.93;;;3.05;;
44838;SDS011;30576;42.098;24.876;2023-10-31T13:02:50;4.43;;;2.88;;
44838;SDS011;30576;42.098;24.876;2023-10-31T13:05:27;8.07;;;2.28;;
44838;SDS011;30576;42.098;24.876;2023-10-31T13:07:54;6.95;;;3.50;;
44838;SDS011;30576;42.098;24.876;2023-10-31T13:10:22;4.55;;;2.10;;
44838;SDS011;30576;42.098;24.876;2023-10-31T13:12:49;7.53;;;2.10;;
44838;SDS011;30576;42.098;24.876;2023-10-31T13:15:15;7.95;;;2.58;;
44838;SDS011;30576;42.098;24.876;2023-10-31T13:17:41;7.13;;;2.63;;
44838;SDS011;30576;42.098;24.876;2023-10-31T13:20:10;3.95;;;2.65;;
44838;SDS011;30576;42.098;24.876;2023-10-31T13:22:38;4.75;;;2.72;;
44838;SDS011;30576;42.098;24.876;2023-10-31T13:25:04;2.75;;;1.65;;
44838;SDS011;30576;42.098;24.876;2023-10-31T13:27:35;3.20;;;1.92;;
44838;SDS011;30576;42.098;24.876;2023-10-31T13:30:01;7.18;;;2.13;;
44838;SDS011;30576;42.098;24.876;2023-10-31T13:32:28;5.10;;;2.40;;
44838;SDS011;30576;42.098;24.876;2023-10-31T13:34:53;4.32;;;2.63;;
44838;SDS011;30576;42.098;24.876;2023-10-31T13:37:19;8.48;;;3.90;;
44838;SDS011;30576;42.098;24.876;2023-10-31T13:39:44;4.28;;;2.83;;
44838;SDS011;30576;42.098;24.876;2023-10-31T13:42:10;7.10;;;2.38;;
44838;SDS011;30576;42.098;24.876;2023-10-31T13:44:36;4.95;;;2.92;;
44838;SDS011;30576;42.098;24.876;2023-10-31T13:47:02;13.18;;;3.22;;
44838;SDS011;30576;42.098;24.876;2023-10-31T13:49:28;5.40;;;2.28;;
44838;SDS011;30576;42.098;24.876;2023-10-31T13:51:54;3.50;;;2.40;;
44838;SDS011;30576;42.098;24.876;2023-10-31T13:54:19;5.82;;;2.45;;
44838;SDS011;30576;42.098;24.876;2023-10-31T13:56:45;5.97;;;2.85;;
44838;SDS011;30576;42.098;24.876;2023-10-31T13:59:12;4.57;;;2.63;;
44838;SDS011;30576;42.098;24.876;2023-10-31T14:01:37;9.10;;;3.85;;
44838;SDS011;30576;42.098;24.876;2023-10-31T14:04:03;5.32;;;2.42;;
44838;SDS011;30576;42.098;24.876;2023-10-31T14:06:28;10.07;;;3.28;;
44838;SDS011;30576;42.098;24.876;2023-10-31T14:08:57;6.43;;;2.92;;
44838;SDS011;30576;42.098;24.876;2023-10-31T14:11:23;6.88;;;3.15;;
44838;SDS011;30576;42.098;24.876;2023-10-31T14:13:49;6.55;;;3.17;;
44838;SDS011;30576;42.098;24.876;2023-10-31T14:16:15;5.55;;;3.20;;
44838;SDS011;30576;42.098;24.876;2023-10-31T14:18:41;6.03;;;3.70;;
44838;SDS011;30576;42.098;24.876;2023-10-31T14:21:08;7.20;;;3.22;;
44838;SDS011;30576;42.098;24.876;2023-10-31T14:23:33;5.88;;;2.58;;
44838;SDS011;30576;42.098;24.876;2023-10-31T14:25:59;5.00;;;3.05;;
44838;SDS011;30576;42.098;24.876;2023-10-31T14:28:25;14.05;;;3.25;;
44838;SDS011;30576;42.098;24.876;2023-10-31T14:30:50;11.27;;;2.85;;
44838;SDS011;30576;42.098;24.876;2023-10-31T14:33:17;12.82;;;2.97;;
44838;SDS011;30576;42.098;24.876;2023-10-31T14:35:43;6.20;;;3.00;;
44838;SDS011;30576;42.098;24.876;2023-10-31T14:38:09;11.82;;;3.30;;
44838;SDS011;30576;42.098;24.876;2023-10-31T14:40:34;9.27;;;4.13;;
44838;SDS011;30576;42.098;24.876;2023-10-31T14:43:00;22.55;;;3.80;;
44838;SDS011;30576;42.098;24.876;2023-10-31T14:45:26;6.03;;;3.60;;
44838;SDS011;30576;42.098;24.876;2023-10-31T14:47:51;7.00;;;3.58;;
44838;SDS011;30576;42.098;24.876;2023-10-31T14:50:18;16.52;;;3.53;;
44838;SDS011;30576;42.098;24.876;2023-10-31T14:52:45;15.82;;;3.17;;
44838;SDS011;30576;42.098;24.876;2023-10-31T14:55:12;5.22;;;2.80;;
44838;SDS011;30576;42.098;24.876;2023-10-31T14:57:38;18.58;;;3.17;;
44838;SDS011;30576;42.098;24.876;2023-10-31T15:00:04;6.32;;;3.35;;
44838;SDS011;30576;42.098;24.876;2023-10-31T15:02:32;19.90;;;4.90;;
44838;SDS011;30576;42.098;24.876;2023-10-31T15:04:59;13.82;;;4.32;;
44838;SDS011;30576;42.098;24.876;2023-10-31T15:07:25;10.93;;;3.55;;
44838;SDS011;30576;42.098;24.876;2023-10-31T15:09:51;12.98;;;3.92;;
44838;SDS011;30576;42.098;24.876;2023-10-31T15:12:16;22.27;;;4.32;;
44838;SDS011;30576;42.098;24.876;2023-10-31T15:14:42;7.03;;;3.72;;
44838;SDS011;30576;42.098;24.876;2023-10-31T15:17:08;9.02;;;3.88;;
44838;SDS011;30576;42.098;24.876;2023-10-31T15:19:33;16.15;;;4.57;;
44838;SDS011;30576;42.098;24.876;2023-10-31T15:21:59;11.52;;;3.40;;
44838;SDS011;30576;42.098;24.876;2023-10-31T15:24:24;15.32;;;4.00;;
44838;SDS011;30576;42.098;24.876;2023-10-31T15:26:55;27.30;;;5.20;;
44838;SDS011;30576;42.098;24.876;2023-10-31T15:29:20;16.42;;;6.50;;
44838;SDS011;30576;42.098;24.876;2023-10-31T15:31:46;30.40;;;4.97;;
44838;SDS011;30576;42.098;24.876;2023-10-31T15:34:13;41.20;;;10.07;;
44838;SDS011;30576;42.098;24.876;2023-10-31T15:36:38;36.75;;;10.15;;
44838;SDS011;30576;42.098;24.876;2023-10-31T15:39:05;27.75;;;7.70;;
44838;SDS011;30576;42.098;24.876;2023-10-31T15:41:31;23.73;;;7.38;;
44838;SDS011;30576;42.098;24.876;2023-10-31T15:43:57;20.33;;;7.47;;
44838;SDS011;30576;42.098;24.876;2023-10-31T15:46:22;17.77;;;8.20;;
44838;SDS011;30576;42.098;24.876;2023-10-31T15:48:49;20.27;;;7.43;;
44838;SDS011;30576;42.098;24.876;2023-10-31T15:51:15;14.63;;;6.28;;
44838;SDS011;30576;42.098;24.876;2023-10-31T15:53:40;14.00;;;6.72;;
44838;SDS011;30576;42.098;24.876;2023-10-31T15:56:06;16.83;;;5.80;;
44838;SDS011;30576;42.098;24.876;2023-10-31T15:58:35;26.27;;;5.05;;
44838;SDS011;30576;42.098;24.876;2023-10-31T16:01:01;11.15;;;5.35;;
44838;SDS011;30576;42.098;24.876;2023-10-31T16:03:26;20.10;;;5.80;;
44838;SDS011;30576;42.098;24.876;2023-10-31T16:05:52;17.92;;;3.90;;
44838;SDS011;30576;42.098;24.876;2023-10-31T16:08:18;13.30;;;4.63;;
44838;SDS011;30576;42.098;24.876;2023-10-31T16:10:44;16.55;;;5.72;;
44838;SDS011;30576;42.098;24.876;2023-10-31T16:13:09;15.57;;;4.65;;
44838;SDS011;30576;42.098;24.876;2023-10-31T16:15:34;16.92;;;5.88;;
44838;SDS011;30576;42.098;24.876;2023-10-31T16:18:00;9.95;;;4.38;;
44838;SDS011;30576;42.098;24.876;2023-10-31T16:20:26;15.90;;;4.78;;
44838;SDS011;30576;42.098;24.876;2023-10-31T16:22:51;12.35;;;4.57;;
44838;SDS011;30576;42.098;24.876;2023-10-31T16:25:17;10.13;;;4.88;;
44838;SDS011;30576;42.098;24.876;2023-10-31T16:27:43;13.40;;;4.38;;
44838;SDS011;30576;42.098;24.876;2023-10-31T16:30:10;15.98;;;4.60;;
44838;SDS011;30576;42.098;24.876;2023-10-31T16:32:36;11.93;;;4.10;;
44838;SDS011;30576;42.098;24.876;2023-10-31T16:35:02;16.30;;;3.95;;
44838;SDS011;30576;42.098;24.876;2023-10-31T16:37:29;10.25;;;4.57;;
44838;SDS011;30576;42.098;24.876;2023-10-31T16:39:55;8.20;;;4.22;;
44838;SDS011;30576;42.098;24.876;2023-10-31T16:42:20;9.18;;;4.32;;
44838;SDS011;30576;42.098;24.876;2023-10-31T16:44:46;6.85;;;4.13;;
44838;SDS011;30576;42.098;24.876;2023-10-31T16:47:12;16.60;;;5.63;;
44838;SDS011;30576;42.098;24.876;2023-10-31T16:49:38;11.13;;;5.80;;
44838;SDS011;30576;42.098;24.876;2023-10-31T16:52:04;13.45;;;5.60;;
44838;SDS011;30576;42.098;24.876;2023-10-31T16:54:30;9.75;;;5.13;;
44838;SDS011;30576;42.098;24.876;2023-10-31T16:56:55;9.38;;;5.10;;
44838;SDS011;30576;42.098;24.876;2023-10-31T16:59:20;24.10;;;6.65;;
44838;SDS011;30576;42.098;24.876;2023-10-31T17:01:46;20.80;;;7.05;;
44838;SDS011;30576;42.098;24.876;2023-10-31T17:04:12;10.73;;;5.78;;
44838;SDS011;30576;42.098;24.876;2023-10-31T17:06:37;12.80;;;5.70;;
44838;SDS011;30576;42.098;24.876;2023-10-31T17:09:03;26.70;;;9.10;;
44838;SDS011;30576;42.098;24.876;2023-10-31T17:11:29;25.17;;;8.40;;
44838;SDS011;30576;42.098;24.876;2023-10-31T17:13:54;27.17;;;11.25;;
44838;SDS011;30576;42.098;24.876;2023-10-31T17:16:20;68.68;;;21.33;;
44838;SDS011;30576;42.098;24.876;2023-10-31T17:18:45;51.72;;;17.15;;
44838;SDS011;30576;42.098;24.876;2023-10-31T17:21:11;50.35;;;16.30;;
44838;SDS011;30576;42.098;24.876;2023-10-31T17:23:36;23.58;;;10.25;;
44838;SDS011;30576;42.098;24.876;2023-10-31T17:26:02;16.30;;;6.03;;
44838;SDS011;30576;42.098;24.876;2023-10-31T17:28:29;27.05;;;8.45;;
44838;SDS011;30576;42.098;24.876;2023-10-31T17:30:56;17.35;;;5.80;;
44838;SDS011;30576;42.098;24.876;2023-10-31T17:33:22;10.90;;;5.70;;
44838;SDS011;30576;42.098;24.876;2023-10-31T17:35:52;11.98;;;5.03;;
44838;SDS011;30576;42.098;24.876;2023-10-31T17:38:18;11.48;;;4.45;;